หน้าหลัก
METAR-TAF:

METAR-TAF

ท่าอากาศยาน :

Rota, หมู่เกาะแมเรียนา, สหรัฐอเมริกา

ละติจูด: 14-11N, ลองจิจูด: 145-15E, ความสูง: 185 ม.

การสังเกตสภาพอากาศปัจจุบัน

รายงานได้ทำขึ้นเมื่อ 30 นาทีที่แล้ว ณ เวลา 02:50 UTC
ลม 11 นอตจากตะวันออก
อุณหภูมิ 30°C
ความชื้น 66%
ความกดอากาศ 1011 hPa
ทัศนวิสัย: 11.3 กม.
มีเมฆเป็นส่วนมากเว้นเป็นระยะที่ความสูง 1500 ฟุต

METAR: PGRO 130250Z 09011KT 7SM BKN015 30/23 A2985

เวลา: 13:20 (03:20 UTC)

การพยากรณ์

รายงานได้ทำขึ้นเมื่อ 3 ชั่วโมงและ 48 นาทีที่แล้ว ณ เวลา 23:32 UTC
การพยากรณ์มีผลตั้งแต่วันที่ 13 ณ เวลา 00 UTC จนถึงวันที่ 13 ณ เวลา 24 UTC
ลม 13 นอตจากตะวันออก
ทัศนวิสัย: 10 กม.
มีเมฆกระจายเป็นบางส่วนที่ความสูง 1400 ฟุต
มีเมฆกระจายเป็นบางส่วนที่ความสูง 4000 ฟุต
มีเมฆเป็นส่วนมากเว้นเป็นระยะที่ความสูง 10000 ฟุต
การโปรยปรายในบริเวณใกล้เคียง
ชั่วคราว
ตั้งแต่วันที่ 13 ณ เวลา 00 UTC จนถึงวันที่ 13 ณ เวลา 02 UTC
มีเมฆเป็นส่วนมากเว้นเป็นระยะที่ความสูง 1400 ฟุต

TAF: PGRO 122332Z 1300/1324 08013KT P6SM VCSH SCT014 SCT040 BKN100 TEMPO 1300/1302 BKN014

สังเกตการณ์สภาพอากาศและพยากรณ์อากาศของสนามบินมากกว่า 4000 แห่ง (รายงาน METAR และ TAF).

สถานีที่ดูได้จะแสดงไว้ด้วยจุดสีเหลืองและสีแดงบนแผนที่.

เลื่อนเมาส์ไปเหนือจุดเพื่อดูชื่อสถานี.

แล้วคลิกเพื่อดูสังเกตการณ์และการพยากรณ์สภาพอากาศ.

ในการเปลี่ยนแผนที่: คลิกที่ปุ่มสีเขียวที่มีกากบาทสีดำเพื่อซูมเข้า; ที่ปุ่มสีเขียวที่มีขีดเพื่อซูมออก; หรือที่ลูกศรสีเขียวเพื่อไปยังแผนที่ที่อยู่ติดกัน.


METAR-TAF: